createdAt,value
2022-09-06T00:00:01.146Z,56.9
2022-09-06T00:05:01.289Z,56.4
2022-09-06T00:10:01.150Z,52.6
2022-09-06T00:25:01.633Z,51.0
2022-09-06T00:30:01.526Z,60.2
2022-09-06T00:35:01.646Z,57.5
2022-09-06T00:55:01.042Z,50.2
2022-09-06T01:00:01.058Z,51.4
2022-09-06T01:05:01.022Z,52.9
2022-09-06T01:10:00.947Z,53.7
2022-09-06T01:15:01.055Z,53.9
2022-09-06T01:20:00.946Z,55.4
2022-09-06T01:25:01.045Z,56.6
2022-09-06T01:30:00.921Z,57.2
2022-09-06T01:35:01.009Z,58.2
2022-09-06T01:40:01.222Z,59.4
2022-09-06T01:45:01.039Z,58.5
2022-09-06T01:50:00.937Z,57.8
2022-09-06T02:05:00.801Z,59.8
2022-09-06T02:10:00.694Z,59.9
2022-09-06T02:15:00.825Z,59.3
2022-09-06T02:20:00.738Z,59.7
2022-09-06T02:25:00.768Z,61.3
2022-09-06T02:30:00.707Z,60.5
2022-09-06T02:35:00.762Z,60.4
2022-09-06T02:40:00.816Z,60.0
2022-09-06T02:45:00.828Z,59.5
2022-09-06T02:50:00.696Z,58.8
2022-09-06T02:55:00.819Z,60.4
2022-09-06T03:00:00.682Z,61.4
2022-09-06T03:05:00.736Z,63.3
2022-09-06T03:10:00.672Z,68.7
2022-09-06T03:15:00.766Z,69.7
2022-09-06T03:20:00.742Z,71.4
2022-09-06T03:25:05.737Z,72.3
2022-09-06T03:30:00.673Z,72.1
2022-09-06T03:35:00.749Z,68.2
2022-09-06T03:40:00.983Z,68.1
2022-09-06T03:45:00.887Z,67.5
2022-09-06T03:50:00.732Z,67.2
2022-09-06T03:55:00.805Z,68.5
2022-09-06T04:00:00.753Z,70.0
2022-09-06T04:05:00.814Z,70.5
2022-09-06T04:10:00.772Z,71.3
2022-09-06T04:15:00.903Z,72.6
2022-09-06T04:20:00.771Z,73.7
2022-09-06T04:25:00.839Z,74.1
2022-09-06T04:30:00.797Z,74.3
2022-09-06T04:35:00.962Z,72.9
2022-09-06T04:40:00.916Z,71.4
2022-09-06T04:45:01.088Z,70.0
2022-09-06T04:50:00.832Z,68.8
2022-09-06T04:55:00.829Z,67.8
2022-09-06T05:00:00.782Z,68.2
2022-09-06T05:05:00.847Z,71.2
2022-09-06T05:10:00.678Z,71.9
2022-09-06T05:15:00.813Z,73.0
2022-09-06T05:20:00.664Z,74.0
2022-09-06T05:25:05.801Z,75.2
2022-09-06T05:30:05.659Z,72.6
2022-09-06T05:35:00.867Z,71.8
2022-09-06T05:40:00.859Z,71.0
2022-09-06T05:45:00.946Z,70.7
2022-09-06T05:50:00.747Z,75.0
2022-09-06T05:55:00.804Z,76.0
2022-09-06T06:00:00.816Z,76.8
2022-09-06T06:05:00.814Z,77.2
2022-09-06T06:10:00.732Z,77.8
2022-09-06T06:15:00.862Z,73.6
2022-09-06T06:20:00.732Z,73.7
2022-09-06T06:25:00.802Z,73.8
2022-09-06T06:30:00.805Z,74.2
2022-09-06T06:35:00.773Z,73.3
2022-09-06T06:40:00.751Z,72.7
2022-09-06T06:45:01.093Z,71.6
2022-09-06T06:50:00.745Z,70.8
2022-09-06T06:55:00.860Z,70.6
2022-09-06T07:00:00.875Z,70.6
2022-09-06T07:05:00.991Z,70.2
2022-09-06T07:35:06.589Z,66.8
2022-09-06T07:40:01.455Z,67.0
2022-09-06T07:45:01.519Z,69.7
2022-09-06T08:35:01.252Z,62.8
2022-09-06T08:40:01.210Z,64.2
2022-09-06T08:45:01.226Z,62.8
2022-09-06T08:50:01.205Z,62.0
2022-09-06T08:55:01.230Z,62.2
2022-09-06T09:00:01.201Z,62.3
2022-09-06T09:05:02.390Z,61.4
2022-09-06T09:10:01.187Z,61.6
2022-09-06T09:15:01.286Z,62.0
2022-09-06T09:20:01.172Z,61.7
2022-09-06T09:25:01.324Z,61.0
2022-09-06T09:55:01.233Z,61.4
2022-09-06T10:00:01.088Z,62.2
2022-09-06T10:05:01.199Z,62.8
2022-09-06T10:10:01.080Z,63.2
2022-09-06T10:15:02.359Z,63.3
2022-09-06T10:20:01.105Z,64.0
2022-09-06T10:25:01.151Z,66.1
2022-09-06T10:30:01.063Z,66.2
2022-09-06T10:35:01.227Z,67.0
2022-09-06T10:40:01.077Z,68.9
2022-09-06T10:45:01.234Z,70.2
2022-09-06T10:50:01.075Z,70.1
2022-09-06T10:55:01.143Z,72.0
2022-09-06T11:00:01.071Z,73.0
2022-09-06T11:25:01.095Z,70.2
2022-09-06T11:45:01.437Z,67.0
2022-09-06T12:05:02.718Z,65.8
2022-09-06T12:10:01.755Z,66.0
2022-09-06T12:25:01.133Z,64.2
2022-09-06T12:30:00.914Z,65.2
2022-09-06T12:55:01.414Z,64.6
2022-09-06T13:00:01.333Z,64.9
2022-09-06T13:05:01.434Z,65.0
2022-09-06T13:15:02.499Z,65.1
2022-09-06T13:20:01.415Z,65.2
2022-09-06T13:25:01.547Z,65.0
2022-09-06T13:30:01.395Z,64.8
2022-09-06T13:35:01.420Z,65.2
2022-09-06T13:40:01.446Z,65.4
2022-09-06T14:00:01.442Z,67.0
2022-09-06T14:05:01.159Z,66.5
2022-09-06T14:10:01.134Z,67.0
2022-09-06T14:15:01.225Z,67.5
2022-09-06T14:20:01.136Z,67.9
2022-09-06T14:25:06.316Z,68.3
2022-09-06T14:30:01.183Z,68.6
2022-09-06T14:40:01.247Z,68.3
2022-09-06T14:45:01.234Z,67.9
2022-09-06T14:50:01.104Z,67.7
2022-09-06T14:55:01.244Z,68.0
2022-09-06T15:00:01.104Z,67.6
2022-09-06T15:05:01.172Z,67.5
2022-09-06T15:15:01.246Z,67.4
2022-09-06T15:20:06.259Z,66.8
2022-09-06T15:25:01.235Z,66.3
2022-09-06T15:30:01.116Z,66.0
2022-09-06T15:35:04.419Z,65.5
2022-09-06T15:40:01.200Z,64.3
2022-09-06T15:45:01.317Z,65.8
2022-09-06T15:50:01.289Z,65.9
2022-09-06T15:55:01.243Z,66.0
2022-09-06T16:00:01.205Z,66.2
2022-09-06T16:05:01.177Z,67.3
2022-09-06T16:10:02.252Z,65.4
2022-09-06T16:15:01.272Z,64.7
2022-09-06T16:20:01.158Z,63.8
2022-09-06T16:25:01.273Z,62.6
2022-09-06T16:30:01.129Z,66.2
2022-09-06T16:35:06.277Z,65.7
2022-09-06T16:40:01.188Z,65.6
2022-09-06T16:45:02.156Z,66.0
2022-09-06T16:50:01.188Z,66.8
2022-09-06T16:55:01.185Z,62.0
2022-09-06T17:00:01.115Z,61.4
2022-09-06T17:05:01.248Z,61.3
2022-09-06T17:10:01.116Z,59.3
2022-09-06T17:15:01.240Z,58.4
2022-09-06T17:20:01.227Z,57.8
2022-09-06T17:25:02.144Z,58.5
2022-09-06T17:30:01.113Z,58.4
2022-09-06T17:35:01.179Z,60.0
2022-09-06T17:40:01.144Z,60.6
2022-09-06T17:45:01.244Z,61.6
2022-09-06T17:50:01.137Z,61.3
2022-09-06T17:55:01.250Z,62.0
2022-09-06T18:00:01.119Z,61.8
2022-09-06T18:05:01.313Z,61.5
2022-09-06T18:10:01.131Z,61.2
2022-09-06T18:15:01.254Z,60.9
2022-09-06T18:20:01.124Z,61.0
2022-09-06T18:25:01.209Z,62.5
2022-09-06T18:30:01.199Z,63.1
2022-09-06T18:35:01.170Z,63.7
2022-09-06T18:40:01.168Z,64.6
2022-09-06T18:45:01.303Z,65.0
2022-09-06T19:00:01.166Z,65.3
2022-09-06T19:05:01.242Z,65.1
2022-09-06T19:10:01.218Z,70.2
2022-09-06T19:15:01.174Z,69.5
2022-09-06T19:20:01.227Z,70.1
2022-09-06T19:25:02.299Z,69.9
2022-09-06T19:30:01.176Z,70.2
2022-09-06T19:35:01.271Z,65.3
2022-09-06T19:40:06.135Z,65.6
2022-09-06T19:45:01.206Z,65.6
2022-09-06T19:50:01.074Z,66.8
2022-09-06T20:00:01.268Z,66.2
2022-09-06T20:05:01.137Z,66.0
2022-09-06T20:10:01.149Z,65.6
2022-09-06T20:15:01.142Z,64.5
2022-09-06T20:20:01.085Z,65.0
2022-09-06T20:25:01.201Z,66.4
2022-09-06T20:30:01.057Z,67.4
2022-09-06T20:35:01.188Z,68.4
2022-09-06T20:40:01.162Z,69.0
2022-09-06T20:45:06.119Z,69.6
2022-09-06T20:50:01.050Z,69.4
2022-09-06T20:55:01.116Z,68.4
2022-09-06T21:00:01.074Z,67.4
2022-09-06T21:05:01.273Z,68.1
2022-09-06T21:10:01.186Z,67.4
2022-09-06T21:15:01.265Z,67.0
2022-09-06T21:20:01.134Z,67.2
2022-09-06T21:25:01.223Z,67.5
2022-09-06T21:30:01.135Z,66.4
2022-09-06T21:35:01.204Z,65.8
2022-09-06T21:40:01.287Z,65.4
2022-09-06T21:45:01.262Z,65.3
2022-09-06T21:50:01.184Z,67.4
2022-09-06T21:55:07.210Z,67.3
2022-09-06T22:00:01.151Z,67.4
2022-09-06T22:05:01.233Z,67.5
2022-09-06T22:10:01.092Z,66.4
2022-09-06T22:15:01.158Z,62.5
2022-09-06T22:20:01.090Z,60.8
2022-09-06T22:25:01.183Z,59.0
2022-09-06T22:30:01.092Z,56.8
2022-09-06T22:35:01.252Z,61.5
2022-09-06T22:40:01.184Z,61.7
2022-09-06T22:45:01.237Z,61.4
2022-09-06T22:50:01.094Z,62.2
2022-09-06T22:55:01.161Z,63.2
2022-09-06T23:00:01.151Z,58.6
2022-09-06T23:05:01.384Z,57.9
2022-09-06T23:15:01.255Z,56.6
2022-09-06T23:20:01.128Z,55.9
2022-09-06T23:25:01.247Z,54.9
2022-09-06T23:30:02.272Z,55.0
2022-09-06T23:35:06.181Z,56.0
2022-09-06T23:40:02.388Z,57.2
2022-09-06T23:45:01.222Z,57.8
2022-09-06T23:50:01.094Z,58.1
2022-09-06T23:55:01.214Z,58.3
